Featherstone, United Kingdom
Current Conditions -  °F | °C
As of 9:50 AM on Friday 28 Nov 2014 (Local Time) from EGBB Reporting Station
Broken Clouds Broken Clouds  
Wind Chill: 50°   Ceiling: 800
Heat Index: 50°   Visibility: 4mi
Dew Point: 48°   Wind: 8mph
Humidity: 94%   Direction: 60°ENE
Pressure: 29.62"   Gusts: NA
Location:  52.64°N, 2.09°W
Report Text: EGBB 280950Z 06007KT 030V100 6000 BKN008 BKN022 10/09 Q1003
Loading
Personal Weather Stations






























Interactive Weather Map New forecast layout! Learn more

10-Day Weather Forecast

Advertisements
Track Severe Weather on mobile